Time;durP1;ratioP1;P1;durP2;ratioP2;P2;SDS_P1;SDS_P2;PMS_P1;PMS_P2;Temp;Humidity;BMP_temperature;BMP_pressure;BME280_temperature;BME280_humidity;BME280_pressure;Samples;Min_cycle;Max_cycle;Signal;HPM_P1;HPM_P2
2023/05/07 00:03:44;;;;;;;5.80;4.45;;;;;11.10;96334.00;;;;8285332;28;20786;-66
2023/05/07 00:07:50;;;;;;;7.22;4.22;;;;;11.00;96332.00;;;;8282407;28;20265;-66
2023/05/07 00:11:55;;;;;;;6.47;4.35;;;;;10.90;96340.00;;;;8276389;28;20195;-65
2023/05/07 00:15:59;;;;;;;6.20;4.70;;;;;10.90;96348.00;;;;8286519;28;20202;-66
2023/05/07 00:20:08;;;;;;;9.43;4.40;;;;;10.80;96339.00;;;;8286563;28;20237;-66
2023/05/07 00:24:12;;;;;;;5.83;3.87;;;;;10.80;96327.00;;;;8281442;28;20597;-65
2023/05/07 00:28:15;;;;;;;6.30;5.00;;;;;10.70;96336.00;;;;8286511;28;20219;-65
2023/05/07 00:32:23;;;;;;;9.02;4.95;;;;;10.70;96335.00;;;;8284381;28;20200;-65
2023/05/07 00:36:31;;;;;;;5.00;4.45;;;;;10.70;96345.00;;;;8285109;28;20210;-67
2023/05/07 00:40:34;;;;;;;6.05;4.93;;;;;10.70;96337.00;;;;8286062;28;20206;-64
2023/05/07 00:44:41;;;;;;;6.57;4.53;;;;;10.70;96333.00;;;;8287954;28;20205;-64
2023/05/07 00:48:48;;;;;;;8.67;5.10;;;;;10.70;96337.00;;;;8277707;28;20229;-65
2023/05/07 00:52:53;;;;;;;6.35;5.05;;;;;10.70;96331.00;;;;8290424;28;20202;-66
2023/05/07 00:56:57;;;;;;;10.27;6.32;;;;;10.70;96334.00;;;;8284142;28;20260;-63
2023/05/07 01:01:01;;;;;;;10.30;6.47;;;;;11.00;96337.00;;;;8279835;28;20955;-66
2023/05/07 01:05:09;;;;;;;11.93;6.40;;;;;11.30;96335.00;;;;8286845;28;20230;-65
2023/05/07 01:09:14;;;;;;;10.73;6.72;;;;;11.70;96343.00;;;;8288426;28;20231;-64
2023/05/07 01:13:25;;;;;;;7.50;5.78;;;;;12.00;96335.00;;;;8289190;28;20234;-66
2023/05/07 01:17:30;;;;;;;7.22;5.38;;;;;12.20;96336.00;;;;8290814;28;20199;-65
2023/05/07 01:21:34;;;;;;;9.07;6.13;;;;;12.40;96340.00;;;;8272289;28;20213;-66
2023/05/07 01:25:40;;;;;;;7.15;5.22;;;;;12.50;96333.00;;;;8291529;28;20203;-64
2023/05/07 01:29:43;;;;;;;7.03;5.20;;;;;12.50;96332.00;;;;8288643;28;20198;-65
2023/05/07 01:33:49;;;;;;;9.35;6.63;;;;;12.50;96330.00;;;;8284670;28;20222;-65
2023/05/07 01:37:52;;;;;;;12.65;6.88;;;;;12.70;96329.00;;;;8289091;28;20202;-65
2023/05/07 01:41:57;;;;;;;7.88;6.38;;;;;12.90;96330.00;;;;8288746;28;20996;-65
2023/05/07 01:46:03;;;;;;;9.10;6.55;;;;;13.10;96329.00;;;;8288938;28;20241;-65
2023/05/07 01:50:11;;;;;;;7.32;6.25;;;;;13.20;96328.00;;;;8259250;28;20297;-66
2023/05/07 01:54:20;;;;;;;8.60;6.38;;;;;13.30;96341.00;;;;8264056;28;20205;-67
2023/05/07 02:03:39;;;;;;;19.25;7.70;;;;;13.40;96330.00;;;;8264041;28;20320;-67
2023/05/07 02:07:56;;;;;;;10.32;6.43;;;;;13.40;96334.00;;;;8256855;28;20230;-66
2023/05/07 02:12:01;;;;;;;9.30;6.88;;;;;13.50;96338.00;;;;8260984;28;20383;-65
2023/05/07 02:16:14;;;;;;;10.63;7.03;;;;;13.40;96336.00;;;;8244750;28;20392;-66
2023/05/07 02:20:21;;;;;;;8.70;6.55;;;;;13.40;96330.00;;;;8263016;28;20432;-65
2023/05/07 02:24:27;;;;;;;9.65;6.70;;;;;13.40;96328.00;;;;8260463;28;20208;-65
2023/05/07 02:28:35;;;;;;;9.65;7.00;;;;;13.40;96321.00;;;;8260408;28;20242;-64
2023/05/07 02:32:42;;;;;;;11.32;7.22;;;;;13.30;96333.00;;;;8260914;28;20205;-66
2023/05/07 02:36:47;;;;;;;9.13;7.63;;;;;13.30;96317.00;;;;8258468;28;20197;-66
2023/05/07 02:40:55;;;;;;;12.63;7.82;;;;;13.20;96319.00;;;;8257541;28;20566;-64
2023/05/07 02:45:07;;;;;;;10.23;7.30;;;;;13.10;96312.00;;;;8259488;28;20201;-65
2023/05/07 02:49:12;;;;;;;12.52;7.65;;;;;13.10;96314.00;;;;8281383;28;20236;-65
2023/05/07 02:53:16;;;;;;;10.57;7.93;;;;;13.00;96306.00;;;;8284623;28;20246;-65
2023/05/07 02:57:19;;;;;;;11.20;7.65;;;;;12.90;96314.00;;;;8287406;28;20263;-66
2023/05/07 03:01:24;;;;;;;11.23;7.93;;;;;12.90;96315.00;;;;8316113;23;20236;-67
2023/05/07 03:05:27;;;;;;;11.13;8.27;;;;;12.80;96319.00;;;;8322167;23;20232;-65
2023/05/07 03:09:32;;;;;;;10.85;8.82;;;;;12.70;96311.00;;;;8313584;28;20271;-66
2023/05/07 03:13:35;;;;;;;13.63;8.88;;;;;12.70;96310.00;;;;8318663;28;20213;-67
2023/05/07 03:17:38;;;;;;;13.43;8.77;;;;;12.60;96317.00;;;;8320791;28;20265;-66
2023/05/07 03:21:43;;;;;;;11.65;8.63;;;;;12.60;96310.00;;;;8319796;28;20204;-67
2023/05/07 03:25:49;;;;;;;12.68;9.00;;;;;12.60;96317.00;;;;8318822;28;20195;-65
2023/05/07 03:29:54;;;;;;;12.43;8.50;;;;;12.50;96310.00;;;;8320005;28;20230;-65
2023/05/07 03:33:58;;;;;;;12.27;8.90;;;;;12.50;96304.00;;;;8314630;28;20211;-68
2023/05/07 03:38:02;;;;;;;18.75;9.18;;;;;12.40;96298.00;;;;8318222;28;20204;-66
2023/05/07 03:42:07;;;;;;;15.68;10.20;;;;;12.40;96313.00;;;;8317982;28;20199;-65
2023/05/07 03:46:10;;;;;;;14.50;9.63;;;;;12.40;96314.00;;;;8319721;28;20707;-66
2023/05/07 03:50:16;;;;;;;13.85;9.75;;;;;12.40;96316.00;;;;8317269;28;20313;-66
2023/05/07 03:54:19;;;;;;;14.43;10.00;;;;;12.50;96323.00;;;;8333593;28;20199;-66
2023/05/07 03:58:27;;;;;;;14.88;10.23;;;;;12.50;96328.00;;;;8319302;28;20227;-67
2023/05/07 04:02:33;;;;;;;15.75;10.30;;;;;12.50;96329.00;;;;8303942;28;20701;-65
2023/05/07 04:06:36;;;;;;;13.93;10.30;;;;;12.50;96339.00;;;;8307387;28;20247;-64
2023/05/07 04:10:42;;;;;;;13.60;9.70;;;;;12.50;96342.00;;;;8287442;28;20205;-67
2023/05/07 04:14:48;;;;;;;14.82;9.88;;;;;12.50;96347.00;;;;8303790;28;20197;-65
2023/05/07 04:18:51;;;;;;;13.63;10.30;;;;;12.60;96352.00;;;;8310893;28;20654;-65
2023/05/07 04:22:55;;;;;;;15.82;10.35;;;;;12.70;96345.00;;;;8310079;28;20205;-66
2023/05/07 04:27:01;;;;;;;13.60;10.30;;;;;12.80;96349.00;;;;8313080;28;20201;-67
2023/05/07 04:31:06;;;;;;;17.20;10.88;;;;;12.90;96341.00;;;;8311774;28;20204;-64
2023/05/07 04:35:11;;;;;;;19.90;10.50;;;;;13.00;96341.00;;;;8303791;28;20284;-66
2023/05/07 04:39:15;;;;;;;17.13;10.50;;;;;13.10;96343.00;;;;8323457;28;20208;-65
2023/05/07 04:43:20;;;;;;;13.65;9.85;;;;;13.20;96337.00;;;;8321468;28;20200;-66
2023/05/07 04:47:25;;;;;;;15.00;10.13;;;;;13.30;96343.00;;;;8317722;28;20227;-65
2023/05/07 04:51:32;;;;;;;13.73;9.05;;;;;13.50;96343.00;;;;8318035;28;21023;-67
2023/05/07 04:55:35;;;;;;;17.27;9.93;;;;;13.70;96344.00;;;;8311099;28;20259;-66
2023/05/07 04:59:38;;;;;;;14.38;9.77;;;;;13.80;96350.00;;;;8316128;28;20196;-66
2023/05/07 05:03:45;;;;;;;13.20;9.73;;;;;14.10;96354.00;;;;8315139;28;20606;-66
2023/05/07 05:07:48;;;;;;;12.38;9.02;;;;;14.30;96356.00;;;;8317432;28;20250;-66
2023/05/07 05:11:51;;;;;;;13.25;9.55;;;;;14.50;96366.00;;;;8321296;28;20197;-65
2023/05/07 05:15:55;;;;;;;14.38;9.55;;;;;14.60;96375.00;;;;8305872;28;20197;-65
2023/05/07 05:20:02;;;;;;;12.93;9.43;;;;;14.60;96386.00;;;;8320498;28;20235;-67
2023/05/07 05:24:10;;;;;;;12.80;9.05;;;;;14.70;96379.00;;;;8322098;28;20262;-66
2023/05/07 05:28:16;;;;;;;14.95;9.32;;;;;14.90;96386.00;;;;8313450;28;20228;-66
2023/05/07 05:32:19;;;;;;;12.55;9.05;;;;;15.10;96370.00;;;;8303158;28;20205;-65
2023/05/07 05:36:26;;;;;;;11.75;8.38;;;;;15.10;96373.00;;;;8317339;28;20217;-65
2023/05/07 05:40:29;;;;;;;14.80;9.70;;;;;15.10;96380.00;;;;8313873;28;20197;-67
2023/05/07 05:44:35;;;;;;;12.95;9.40;;;;;15.10;96381.00;;;;8312506;28;20205;-65
2023/05/07 05:48:38;;;;;;;12.85;9.50;;;;;15.00;96377.00;;;;8306076;28;20226;-66
2023/05/07 05:52:44;;;;;;;15.98;9.45;;;;;15.00;96384.00;;;;8316838;28;20224;-66
2023/05/07 05:56:47;;;;;;;15.10;9.80;;;;;15.10;96382.00;;;;8318388;28;20205;-66
2023/05/07 06:00:55;;;;;;;13.32;8.57;;;;;15.20;96381.00;;;;8313575;28;20647;-65
2023/05/07 06:04:59;;;;;;;14.23;9.43;;;;;15.20;96381.00;;;;8307285;28;20284;-68
2023/05/07 06:09:09;;;;;;;14.02;9.00;;;;;15.40;96385.00;;;;8307355;28;20241;-67
2023/05/07 06:13:12;;;;;;;15.55;8.18;;;;;15.70;96394.00;;;;8307899;28;20243;-67
2023/05/07 06:17:15;;;;;;;13.77;9.02;;;;;15.80;96395.00;;;;8315309;28;20540;-67
2023/05/07 06:21:23;;;;;;;10.73;8.43;;;;;16.10;96405.00;;;;8309166;28;20189;-65
2023/05/07 06:25:28;;;;;;;17.42;8.95;;;;;16.40;96410.00;;;;8316510;28;20229;-68
2023/05/07 06:29:33;;;;;;;12.82;8.63;;;;;16.50;96421.00;;;;8314702;28;20283;-66
2023/05/07 06:33:39;;;;;;;10.30;8.35;;;;;16.60;96420.00;;;;8310509;28;20197;-66
2023/05/07 06:37:43;;;;;;;11.48;8.63;;;;;16.50;96423.00;;;;8313534;28;20193;-65
2023/05/07 06:41:47;;;;;;;10.40;7.75;;;;;16.70;96425.00;;;;8301744;28;20213;-65
2023/05/07 06:45:51;;;;;;;13.15;8.90;;;;;16.90;96430.00;;;;8302368;28;20586;-63
2023/05/07 06:49:58;;;;;;;11.23;8.63;;;;;17.30;96434.00;;;;8304871;28;20230;-68
2023/05/07 06:54:01;;;;;;;14.05;9.15;;;;;17.70;96437.00;;;;8307114;28;20198;-68
2023/05/07 06:58:12;;;;;;;11.77;8.43;;;;;17.50;96431.00;;;;8310282;28;20248;-68
2023/05/07 07:02:16;;;;;;;12.00;8.35;;;;;17.50;96429.00;;;;8308163;28;20222;-67
2023/05/07 07:06:22;;;;;;;11.43;8.80;;;;;17.90;96427.00;;;;8304894;28;20210;-68
2023/05/07 07:10:26;;;;;;;12.18;8.68;;;;;18.30;96430.00;;;;8309115;28;20225;-69
2023/05/07 07:14:32;;;;;;;15.55;8.60;;;;;18.70;96442.00;;;;8288965;28;20683;-71
2023/05/07 07:18:35;;;;;;;11.13;7.93;;;;;18.80;96435.00;;;;8305151;28;20242;-70
2023/05/07 07:22:39;;;;;;;13.98;8.40;;;;;19.50;96432.00;;;;8308010;28;20251;-69
2023/05/07 07:26:42;;;;;;;13.88;7.85;;;;;19.70;96431.00;;;;8298929;28;20272;-71
2023/05/07 07:30:47;;;;;;;10.32;7.82;;;;;19.20;96441.00;;;;8303480;28;20229;-69
2023/05/07 07:34:50;;;;;;;14.05;8.57;;;;;19.10;96434.00;;;;8303398;28;20251;-72
2023/05/07 07:38:54;;;;;;;14.25;7.50;;;;;19.20;96426.00;;;;8305472;28;20202;-71
2023/05/07 07:42:58;;;;;;;10.13;7.97;;;;;19.20;96442.00;;;;8307829;28;20288;-71
2023/05/07 07:47:06;;;;;;;10.88;8.00;;;;;19.00;96444.00;;;;8305477;28;20247;-69
2023/05/07 07:51:13;;;;;;;12.75;8.23;;;;;18.80;96441.00;;;;8299589;28;20229;-69
2023/05/07 07:55:20;;;;;;;15.05;8.52;;;;;18.70;96448.00;;;;8312250;28;20193;-69
2023/05/07 07:59:24;;;;;;;12.75;8.88;;;;;19.70;96446.00;;;;8313877;28;20201;-71
2023/05/07 08:03:31;;;;;;;11.18;7.90;;;;;20.40;96453.00;;;;8319730;28;20577;-70
2023/05/07 08:07:34;;;;;;;12.05;7.65;;;;;20.90;96452.00;;;;8318155;28;20197;-69
2023/05/07 08:11:38;;;;;;;13.20;8.15;;;;;21.60;96444.00;;;;8315153;28;20233;-69
2023/05/07 08:15:41;;;;;;;9.40;7.72;;;;;22.10;96439.00;;;;8312472;28;20221;-69
2023/05/07 08:19:48;;;;;;;12.88;8.55;;;;;22.60;96451.00;;;;8311307;28;20201;-71
2023/05/07 08:23:54;;;;;;;13.02;7.55;;;;;23.50;96458.00;;;;8313883;28;20197;-67
2023/05/07 08:27:57;;;;;;;14.52;7.15;;;;;24.10;96461.00;;;;8307705;28;20998;-66
2023/05/07 08:32:00;;;;;;;7.53;6.70;;;;;24.50;96473.00;;;;8289718;28;20579;-68
2023/05/07 08:36:06;;;;;;;9.65;7.20;;;;;25.30;96466.00;;;;8315629;28;20201;-70
2023/05/07 08:40:11;;;;;;;7.72;6.18;;;;;24.90;96466.00;;;;8314445;28;20224;-68
2023/05/07 08:44:20;;;;;;;10.70;7.10;;;;;25.00;96475.00;;;;8320687;28;20198;-70
2023/05/07 08:48:28;;;;;;;8.02;6.82;;;;;24.40;96469.00;;;;8321570;28;20255;-67
2023/05/07 08:52:35;;;;;;;10.02;6.90;;;;;24.10;96477.00;;;;8303102;28;20201;-70
2023/05/07 08:56:43;;;;;;;7.95;6.45;;;;;24.10;96487.00;;;;8316000;28;20917;-68
2023/05/07 09:00:47;;;;;;;10.93;5.90;;;;;24.40;96479.00;;;;8309830;28;20198;-68
2023/05/07 09:04:55;;;;;;;7.57;6.30;;;;;24.50;96471.00;;;;8308500;28;20292;-71
2023/05/07 09:09:01;;;;;;;10.50;6.53;;;;;24.20;96471.00;;;;8307858;28;20260;-70
2023/05/07 09:13:04;;;;;;;7.38;5.60;;;;;24.10;96473.00;;;;8299739;28;20597;-69
2023/05/07 09:17:11;;;;;;;7.55;6.47;;;;;24.50;96474.00;;;;8304982;28;20641;-71
2023/05/07 09:21:19;;;;;;;10.25;6.10;;;;;25.80;96486.00;;;;8311500;28;20202;-70
2023/05/07 09:25:31;;;;;;;7.82;6.38;;;;;25.80;96478.00;;;;8304009;28;20669;-72
2023/05/07 09:29:35;;;;;;;7.72;5.45;;;;;25.60;96479.00;;;;8306482;28;20245;-68
2023/05/07 09:33:38;;;;;;;9.15;6.53;;;;;25.30;96471.00;;;;8301269;28;20201;-69
2023/05/07 09:37:41;;;;;;;6.13;5.53;;;;;25.50;96471.00;;;;8302255;28;20212;-69
2023/05/07 09:41:49;;;;;;;6.75;5.80;;;;;26.30;96471.00;;;;8303481;28;20247;-69
2023/05/07 09:45:52;;;;;;;6.55;5.75;;;;;27.10;96463.00;;;;8306940;28;20201;-68
2023/05/07 09:50:00;;;;;;;5.95;5.35;;;;;28.20;96468.00;;;;8304912;28;20233;-72
2023/05/07 09:54:06;;;;;;;8.55;5.28;;;;;28.80;96464.00;;;;8306200;28;20198;-70
2023/05/07 09:58:14;;;;;;;6.88;5.75;;;;;28.30;96465.00;;;;8309598;28;20197;-69
2023/05/07 10:02:20;;;;;;;6.68;5.97;;;;;27.90;96463.00;;;;8301080;28;20823;-68
2023/05/07 10:06:26;;;;;;;6.82;6.03;;;;;28.20;96464.00;;;;8302690;28;20193;-69
2023/05/07 10:10:31;;;;;;;7.72;5.20;;;;;28.60;96462.00;;;;8305240;28;20682;-70
2023/05/07 10:14:37;;;;;;;8.10;5.22;;;;;28.20;96461.00;;;;8303652;28;20201;-71
2023/05/07 10:18:42;;;;;;;9.57;5.82;;;;;28.60;96475.00;;;;8306919;28;20209;-72
2023/05/07 10:22:48;;;;;;;7.85;6.38;;;;;28.10;96479.00;;;;8304581;28;20627;-71
2023/05/07 10:26:53;;;;;;;8.45;5.63;;;;;27.50;96483.00;;;;8304948;28;20190;-68
2023/05/07 10:31:12;;;;;;;7.55;5.40;;;;;27.40;96468.00;;;;8303196;28;20226;-68
2023/05/07 10:35:21;;;;;;;6.47;5.78;;;;;26.80;96473.00;;;;8306746;28;20232;-72
2023/05/07 10:39:24;;;;;;;5.88;5.28;;;;;26.00;96464.00;;;;8312825;28;20202;-74
2023/05/07 10:43:42;;;;;;;6.07;4.88;;;;;27.00;96455.00;;;;8316114;28;20614;-68
2023/05/07 10:48:08;;;;;;;5.40;4.90;;;;;28.10;96463.00;;;;8303418;28;20255;-73
2023/05/07 10:52:31;;;;;;;8.57;5.00;;;;;29.00;96451.00;;;;8308374;28;20639;-69
2023/05/07 10:56:34;;;;;;;5.35;4.35;;;;;29.80;96452.00;;;;8314343;28;20278;-73
2023/05/07 11:00:44;;;;;;;4.80;4.35;;;;;31.30;96451.00;;;;8313798;28;20704;-72
2023/05/07 11:05:21;;;;;;;4.97;4.43;;;;;32.40;96452.00;;;;8312043;28;20256;-70
2023/05/07 11:09:25;;;;;;;4.97;4.20;;;;;32.50;96462.00;;;;8305105;28;20213;-72
2023/05/07 11:13:48;;;;;;;4.22;3.83;;;;;31.40;96453.00;;;;8312646;28;20209;-72
2023/05/07 11:18:07;;;;;;;5.78;4.05;;;;;30.20;96458.00;;;;8315795;28;20193;-69
2023/05/07 11:22:40;;;;;;;4.40;3.95;;;;;28.90;96459.00;;;;8310784;28;20678;-75
2023/05/07 11:26:48;;;;;;;6.18;4.25;;;;;27.80;96446.00;;;;8308864;28;20194;-69
2023/05/07 11:30:51;;;;;;;6.85;4.65;;;;;27.40;96443.00;;;;8313885;28;20359;-70
2023/05/07 11:35:00;;;;;;;5.40;4.47;;;;;26.80;96445.00;;;;8306199;28;20225;-69
2023/05/07 11:39:06;;;;;;;5.22;4.00;;;;;26.70;96442.00;;;;8309315;28;20197;-73
2023/05/07 11:43:11;;;;;;;4.80;4.35;;;;;27.00;96439.00;;;;8310902;28;20197;-70
2023/05/07 11:47:21;;;;;;;5.10;4.57;;;;;27.10;96453.00;;;;8305203;28;20205;-69
2023/05/07 11:51:34;;;;;;;5.57;4.50;;;;;26.60;96444.00;;;;8308289;28;20236;-70
2023/05/07 11:55:38;;;;;;;5.38;4.53;;;;;26.30;96445.00;;;;8304159;28;20218;-71
2023/05/07 11:59:46;;;;;;;5.20;4.70;;;;;26.40;96441.00;;;;8294782;28;20206;-69
2023/05/07 12:03:55;;;;;;;5.28;4.78;;;;;26.40;96440.00;;;;8312484;28;20229;-70
2023/05/07 12:07:59;;;;;;;6.05;4.82;;;;;26.50;96443.00;;;;8307656;28;20766;-72
2023/05/07 12:12:06;;;;;;;6.65;4.80;;;;;25.90;96438.00;;;;8312800;28;20233;-68
2023/05/07 12:16:10;;;;;;;4.95;4.38;;;;;26.00;96441.00;;;;8313285;28;20202;-70
2023/05/07 12:20:17;;;;;;;5.95;4.47;;;;;25.90;96439.00;;;;8303926;28;20533;-72
2023/05/07 12:24:21;;;;;;;4.53;4.03;;;;;26.10;96439.00;;;;8307290;28;20193;-68
2023/05/07 12:28:25;;;;;;;6.00;4.28;;;;;26.10;96441.00;;;;8307475;28;20267;-71
2023/05/07 12:32:28;;;;;;;4.53;4.13;;;;;26.10;96441.00;;;;8302959;28;20778;-69
2023/05/07 12:36:38;;;;;;;4.75;4.22;;;;;26.20;96442.00;;;;8314480;28;20209;-69
2023/05/07 12:40:47;;;;;;;5.40;3.50;;;;;26.00;96440.00;;;;8312191;28;20197;-71
2023/05/07 12:44:53;;;;;;;5.53;4.07;;;;;25.50;96437.00;;;;8304610;28;20205;-68
2023/05/07 12:48:59;;;;;;;5.85;4.07;;;;;25.20;96428.00;;;;8322163;28;20205;-69
2023/05/07 12:53:16;;;;;;;3.85;3.55;;;;;25.30;96427.00;;;;8293527;28;20295;-68
2023/05/07 12:57:20;;;;;;;4.70;3.88;;;;;25.50;96423.00;;;;8310298;28;20193;-70
2023/05/07 13:01:30;;;;;;;6.88;3.40;;;;;25.60;96418.00;;;;8321266;28;20546;-69
2023/05/07 13:05:35;;;;;;;5.03;3.40;;;;;25.70;96412.00;;;;8317866;28;20726;-70
2023/05/07 13:09:38;;;;;;;4.45;3.33;;;;;26.00;96415.00;;;;8319681;28;20202;-68
2023/05/07 13:13:42;;;;;;;4.03;3.20;;;;;26.10;96418.00;;;;8321465;28;20221;-68
2023/05/07 13:17:47;;;;;;;3.03;2.83;;;;;26.30;96407.00;;;;8321026;28;20217;-70
2023/05/07 13:21:51;;;;;;;3.22;2.70;;;;;26.80;96401.00;;;;8315478;28;20312;-69
2023/05/07 13:25:55;;;;;;;3.20;2.90;;;;;27.10;96399.00;;;;8320324;28;20194;-71
2023/05/07 13:29:59;;;;;;;4.53;3.50;;;;;27.00;96395.00;;;;8317869;28;20208;-68
2023/05/07 13:34:03;;;;;;;2.53;2.42;;;;;27.30;96394.00;;;;8321070;28;20567;-71
2023/05/07 13:38:06;;;;;;;3.63;2.60;;;;;27.50;96387.00;;;;8313409;28;20202;-70
2023/05/07 13:42:12;;;;;;;2.67;2.47;;;;;28.10;96385.00;;;;8316534;28;20285;-69
2023/05/07 13:46:19;;;;;;;3.22;2.85;;;;;28.30;96371.00;;;;8319682;28;20276;-70
2023/05/07 13:50:26;;;;;;;2.50;2.30;;;;;28.60;96374.00;;;;8318699;28;20193;-70
2023/05/07 13:54:29;;;;;;;3.03;2.40;;;;;28.30;96379.00;;;;8301112;28;20205;-69
2023/05/07 13:58:36;;;;;;;3.25;2.83;;;;;28.10;96381.00;;;;8310389;28;20251;-69
2023/05/07 14:03:03;;;;;;;3.13;2.55;;;;;28.20;96378.00;;;;8306435;28;20598;-70
2023/05/07 14:07:10;;;;;;;3.38;2.33;;;;;28.50;96374.00;;;;8315657;28;20194;-73
2023/05/07 14:11:17;;;;;;;2.38;2.17;;;;;28.90;96376.00;;;;8309915;28;20304;-69
2023/05/07 14:15:20;;;;;;;3.67;2.63;;;;;29.40;96378.00;;;;8311543;28;20204;-71
2023/05/07 14:19:23;;;;;;;2.78;2.58;;;;;28.90;96386.00;;;;8312384;28;20642;-73
2023/05/07 14:23:29;;;;;;;2.78;2.63;;;;;28.30;96381.00;;;;8317238;28;20211;-69
2023/05/07 14:27:33;;;;;;;4.40;2.55;;;;;27.80;96382.00;;;;8315615;28;20288;-70
2023/05/07 14:31:44;;;;;;;4.38;3.50;;;;;28.10;96389.00;;;;8312204;28;20252;-70
2023/05/07 14:35:50;;;;;;;3.35;2.92;;;;;28.00;96386.00;;;;8311040;28;20201;-70
2023/05/07 14:39:54;;;;;;;3.33;3.03;;;;;27.70;96385.00;;;;8307741;28;20198;-69
2023/05/07 14:43:58;;;;;;;3.58;3.00;;;;;27.60;96385.00;;;;8318352;28;20200;-70
2023/05/07 14:48:03;;;;;;;2.97;2.78;;;;;28.20;96389.00;;;;8319959;28;20228;-68
2023/05/07 14:52:11;;;;;;;3.58;3.28;;;;;28.30;96389.00;;;;8316654;28;20556;-71
2023/05/07 14:56:18;;;;;;;4.47;3.70;;;;;27.90;96387.00;;;;8316865;28;20641;-71
2023/05/07 15:00:24;;;;;;;4.05;3.72;;;;;27.60;96387.00;;;;8316246;28;20259;-69
2023/05/07 15:04:30;;;;;;;8.45;4.50;;;;;26.70;96386.00;;;;8313335;28;20225;-69
2023/05/07 15:08:34;;;;;;;5.28;4.78;;;;;26.00;96400.00;;;;8291537;28;20720;-69
2023/05/07 15:12:39;;;;;;;5.50;4.97;;;;;25.40;96392.00;;;;8310809;28;20257;-69
2023/05/07 15:16:43;;;;;;;6.80;5.70;;;;;25.40;96396.00;;;;8305116;28;20255;-68
2023/05/07 15:20:46;;;;;;;6.32;5.00;;;;;25.20;96387.00;;;;8310915;28;20197;-70
2023/05/07 15:24:54;;;;;;;6.32;5.40;;;;;25.10;96385.00;;;;8314408;28;20201;-72
2023/05/07 15:29:04;;;;;;;6.88;5.35;;;;;25.30;96384.00;;;;8306829;28;20197;-71
2023/05/07 15:33:10;;;;;;;5.88;5.28;;;;;25.30;96381.00;;;;8305085;28;20235;-70
2023/05/07 15:37:15;;;;;;;5.80;5.22;;;;;25.40;96384.00;;;;8306466;28;20201;-69
2023/05/07 15:41:20;;;;;;;5.95;5.20;;;;;25.10;96387.00;;;;8302503;28;20202;-68
2023/05/07 15:45:25;;;;;;;7.00;5.28;;;;;24.80;96379.00;;;;8298454;28;20856;-70
2023/05/07 15:49:33;;;;;;;5.55;4.78;;;;;24.70;96393.00;;;;8304577;28;20248;-68
2023/05/07 15:53:36;;;;;;;4.60;4.18;;;;;24.40;96393.00;;;;8299979;28;20246;-68
2023/05/07 15:57:39;;;;;;;5.57;4.40;;;;;24.20;96392.00;;;;8303536;28;20197;-69
2023/05/07 16:01:44;;;;;;;4.95;4.28;;;;;24.00;96394.00;;;;8303124;28;20259;-68
2023/05/07 16:05:51;;;;;;;6.72;4.25;;;;;23.70;96412.00;;;;8304787;28;20751;-71
2023/05/07 16:09:55;;;;;;;7.28;4.50;;;;;23.40;96403.00;;;;8302162;28;20209;-68
2023/05/07 16:14:00;;;;;;;5.45;4.15;;;;;23.20;96402.00;;;;8306569;28;20578;-68
2023/05/07 16:18:05;;;;;;;6.35;4.70;;;;;23.10;96409.00;;;;8292758;28;20201;-69
2023/05/07 16:22:11;;;;;;;11.07;4.78;;;;;23.10;96407.00;;;;8310528;28;20633;-68
2023/05/07 16:26:20;;;;;;;5.82;4.68;;;;;23.00;96421.00;;;;8316730;28;20292;-69
2023/05/07 16:30:24;;;;;;;6.63;5.50;;;;;22.80;96413.00;;;;8318175;28;20209;-71
2023/05/07 16:34:29;;;;;;;7.00;5.05;;;;;22.80;96409.00;;;;8315404;28;20224;-68
2023/05/07 16:38:34;;;;;;;8.52;5.55;;;;;22.90;96402.00;;;;8318457;28;20221;-70
2023/05/07 16:42:38;;;;;;;6.88;5.50;;;;;23.20;96404.00;;;;8319058;28;20284;-69
2023/05/07 16:46:41;;;;;;;6.78;5.57;;;;;23.20;96418.00;;;;8303059;28;20190;-68
2023/05/07 16:50:45;;;;;;;6.03;5.43;;;;;23.20;96417.00;;;;8317521;28;20205;-70
2023/05/07 16:54:51;;;;;;;8.23;5.55;;;;;23.10;96421.00;;;;8294784;28;20228;-69
2023/05/07 16:58:55;;;;;;;6.00;5.22;;;;;22.90;96418.00;;;;8298912;28;20248;-68
2023/05/07 17:02:58;;;;;;;8.50;6.38;;;;;22.70;96423.00;;;;8315102;28;20408;-71
2023/05/07 17:07:03;;;;;;;9.75;6.50;;;;;22.40;96420.00;;;;8308507;28;20198;-67
2023/05/07 17:11:07;;;;;;;8.18;6.38;;;;;22.20;96437.00;;;;8312581;28;20830;-69
2023/05/07 17:15:14;;;;;;;9.75;6.00;;;;;22.10;96442.00;;;;8310845;28;20225;-71
2023/05/07 17:19:17;;;;;;;9.52;7.00;;;;;21.80;96446.00;;;;8313387;28;20240;-70
2023/05/07 17:23:25;;;;;;;9.02;6.68;;;;;21.50;96456.00;;;;8310978;28;20221;-70
2023/05/07 17:27:30;;;;;;;8.88;6.35;;;;;21.20;96448.00;;;;8316282;28;21037;-71
2023/05/07 17:31:35;;;;;;;10.27;6.85;;;;;21.00;96463.00;;;;8315316;28;20228;-70
2023/05/07 17:35:38;;;;;;;8.77;6.80;;;;;20.70;96457.00;;;;8317501;28;20279;-68
2023/05/07 17:39:43;;;;;;;10.60;7.20;;;;;20.50;96460.00;;;;8317038;28;20197;-68
2023/05/07 17:43:46;;;;;;;9.40;7.00;;;;;20.30;96465.00;;;;8315891;28;20264;-71
2023/05/07 17:47:51;;;;;;;10.65;7.20;;;;;20.10;96463.00;;;;8318613;28;20880;-68
2023/05/07 17:51:54;;;;;;;7.93;6.10;;;;;20.00;96473.00;;;;8318897;28;20902;-70
2023/05/07 17:56:03;;;;;;;8.30;6.20;;;;;19.80;96468.00;;;;8302734;28;20749;-69
2023/05/07 18:00:08;;;;;;;8.50;6.38;;;;;19.70;96476.00;;;;8312865;28;20197;-69
2023/05/07 18:04:12;;;;;;;11.98;6.82;;;;;19.60;96488.00;;;;8308894;28;20240;-69
2023/05/07 18:08:19;;;;;;;9.48;6.90;;;;;19.40;96485.00;;;;8308889;28;20197;-69
2023/05/07 18:12:24;;;;;;;7.65;6.20;;;;;19.30;96488.00;;;;8313175;28;20954;-76
2023/05/07 18:16:29;;;;;;;9.88;7.47;;;;;19.10;96493.00;;;;8313160;28;20211;-69
2023/05/07 18:20:32;;;;;;;10.43;7.28;;;;;19.00;96498.00;;;;8315983;28;20399;-69
2023/05/07 18:24:38;;;;;;;10.48;6.80;;;;;18.80;96498.00;;;;8305602;28;20201;-68
2023/05/07 18:28:44;;;;;;;11.05;7.18;;;;;18.60;96510.00;;;;8311801;28;20206;-68
2023/05/07 18:32:49;;;;;;;9.93;6.85;;;;;18.50;96510.00;;;;8303306;28;20221;-70
2023/05/07 18:36:52;;;;;;;8.52;6.80;;;;;18.30;96517.00;;;;8311386;28;20224;-67
2023/05/07 18:41:01;;;;;;;10.57;7.57;;;;;18.10;96511.00;;;;8300240;28;20477;-68
2023/05/07 18:45:08;;;;;;;10.55;6.80;;;;;17.90;96517.00;;;;8317068;28;20281;-67
2023/05/07 18:49:14;;;;;;;9.63;7.05;;;;;17.80;96521.00;;;;8309229;28;20201;-67
2023/05/07 18:53:22;;;;;;;9.52;7.30;;;;;17.70;96528.00;;;;8317839;28;21949;-68
2023/05/07 18:57:28;;;;;;;11.95;7.85;;;;;17.50;96515.00;;;;8313134;28;20197;-69
2023/05/07 19:01:37;;;;;;;11.60;7.13;;;;;17.40;96517.00;;;;8314598;28;20201;-69
2023/05/07 19:05:40;;;;;;;10.35;7.78;;;;;17.30;96532.00;;;;8310420;28;20279;-68
2023/05/07 19:09:43;;;;;;;8.88;6.82;;;;;17.20;96534.00;;;;8285530;28;20213;-68
2023/05/07 19:14:06;;;;;;;8.88;7.03;;;;;17.10;96533.00;;;;8307660;28;20232;-69
2023/05/07 19:18:10;;;;;;;9.13;7.38;;;;;17.00;96542.00;;;;8315203;28;20288;-68
2023/05/07 19:22:18;;;;;;;14.52;8.40;;;;;16.90;96540.00;;;;8317087;28;20227;-68
2023/05/07 19:26:23;;;;;;;10.80;7.80;;;;;16.80;96547.00;;;;8316460;28;20202;-68
2023/05/07 19:30:27;;;;;;;10.32;7.90;;;;;16.70;96549.00;;;;8311028;28;20699;-68
2023/05/07 19:34:34;;;;;;;11.75;8.15;;;;;16.70;96550.00;;;;8312304;28;20327;-69
2023/05/07 19:38:40;;;;;;;12.35;8.50;;;;;16.60;96549.00;;;;8311289;28;20263;-70
2023/05/07 19:42:43;;;;;;;12.15;8.70;;;;;16.50;96560.00;;;;8304485;28;20209;-68
2023/05/07 19:46:47;;;;;;;14.55;8.38;;;;;16.50;96564.00;;;;8312204;28;20710;-68
2023/05/07 19:50:51;;;;;;;11.27;7.63;;;;;16.40;96571.00;;;;8306940;28;20319;-68
2023/05/07 19:54:56;;;;;;;11.57;7.88;;;;;16.40;96570.00;;;;8300515;28;20221;-68
2023/05/07 19:59:02;;;;;;;11.57;8.13;;;;;16.30;96571.00;;;;8308952;28;20201;-68
2023/05/07 20:03:05;;;;;;;13.77;7.90;;;;;16.20;96580.00;;;;8297981;28;20264;-67
2023/05/07 20:07:15;;;;;;;12.32;8.02;;;;;16.20;96569.00;;;;8290520;28;20709;-68
2023/05/07 20:11:23;;;;;;;10.00;7.78;;;;;16.10;96584.00;;;;8309615;28;20197;-68
2023/05/07 20:15:26;;;;;;;10.25;8.07;;;;;16.10;96582.00;;;;8312406;28;20275;-69
2023/05/07 20:19:29;;;;;;;9.60;7.25;;;;;16.00;96586.00;;;;8309285;28;20252;-67
2023/05/07 20:23:36;;;;;;;10.75;7.57;;;;;15.90;96590.00;;;;8314590;28;20725;-68
2023/05/07 20:27:41;;;;;;;9.50;7.18;;;;;15.90;96594.00;;;;8316601;28;20562;-68
2023/05/07 20:31:46;;;;;;;10.68;7.75;;;;;15.80;96595.00;;;;8316534;28;20201;-70